createdAt,value
2018-09-14T05:24:03.241Z,35
2018-09-14T05:25:11.353Z,35
2018-09-14T05:26:18.991Z,40
2018-09-14T05:27:27.050Z,45
2018-09-14T05:28:35.112Z,45
2018-09-14T05:29:43.149Z,50
2018-09-14T05:30:51.250Z,55
2018-09-14T05:31:59.310Z,55
2018-09-14T05:33:07.578Z,60
2018-09-14T05:34:16.643Z,65
2018-09-14T05:35:23.718Z,70
2018-09-14T05:36:31.783Z,70
2018-09-14T05:37:39.837Z,75
2018-09-14T05:38:47.894Z,75
2018-09-14T05:39:55.984Z,80
2018-09-14T05:41:04.028Z,80
2018-09-14T05:42:12.347Z,80
2018-09-14T05:43:20.169Z,80
2018-09-14T05:44:28.234Z,80
2018-09-14T05:45:37.483Z,80
2018-09-14T05:46:44.361Z,80
2018-09-14T05:47:52.669Z,85
2018-09-14T05:49:00.504Z,80
2018-09-14T05:50:08.561Z,80
2018-09-14T05:51:16.630Z,85
2018-09-14T05:52:24.689Z,85
2018-09-14T05:53:32.829Z,85
2018-09-14T05:54:40.820Z,90
2018-09-14T05:55:48.889Z,100
2018-09-14T05:56:56.957Z,100
2018-09-14T05:58:05.026Z,105
2018-09-14T05:59:13.068Z,105
2018-09-14T06:00:21.135Z,115
2018-09-14T06:01:29.208Z,125
2018-09-14T06:02:37.286Z,135
2018-09-14T06:03:45.348Z,145
2018-09-14T06:04:53.500Z,155
2018-09-14T06:06:01.478Z,160
2018-09-14T06:07:09.795Z,160
2018-09-14T06:08:17.601Z,160
2018-09-14T06:09:25.669Z,160
2018-09-14T06:10:33.723Z,160
2018-09-14T06:11:41.801Z,165
2018-09-14T06:12:49.857Z,160
2018-09-14T06:13:57.919Z,155
2018-09-14T06:15:06.051Z,155
2018-09-14T06:16:14.066Z,150
2018-09-14T06:17:22.115Z,150
2018-09-14T06:18:30.190Z,155
2018-09-14T06:19:38.286Z,155
2018-09-14T06:20:46.590Z,155
2018-09-14T06:21:54.731Z,155
2018-09-14T06:23:02.453Z,155
2018-09-14T06:24:10.790Z,155
2018-09-14T06:25:18.588Z,155
2018-09-14T06:26:26.731Z,155
2018-09-14T06:27:34.719Z,160
2018-09-14T06:28:43.020Z,165
2018-09-14T06:29:50.872Z,180
2018-09-14T06:30:58.908Z,185
2018-09-14T06:32:06.993Z,195
2018-09-14T06:33:15.148Z,210
2018-09-14T06:34:23.120Z,225
2018-09-14T06:35:31.282Z,240
2018-09-14T06:36:39.240Z,250
2018-09-14T06:37:47.327Z,260
2018-09-14T06:38:55.401Z,265
2018-09-14T06:40:03.432Z,260
2018-09-14T06:41:11.505Z,250
2018-09-14T06:42:19.579Z,250
2018-09-14T06:43:27.646Z,240
2018-09-14T06:44:35.715Z,235
2018-09-14T06:45:43.758Z,235
2018-09-14T06:46:51.833Z,235
2018-09-14T06:47:59.953Z,225
2018-09-14T06:49:07.970Z,225
2018-09-14T06:50:16.301Z,220
2018-09-14T06:51:24.089Z,215
2018-09-14T06:52:32.166Z,210
2018-09-14T06:53:40.531Z,245
2018-09-14T06:54:48.964Z,225
2018-09-14T06:55:56.783Z,215
2018-09-14T06:57:04.836Z,215
2018-09-14T06:58:12.876Z,195
2018-09-14T06:59:20.963Z,195
2018-09-14T07:00:29.171Z,200
2018-09-14T07:01:37.202Z,235
2018-09-14T07:02:45.162Z,250
2018-09-14T07:03:53.232Z,235
2018-09-14T07:05:01.299Z,195
2018-09-14T07:06:09.378Z,200
2018-09-14T07:07:17.438Z,210
2018-09-14T07:08:25.501Z,210
2018-09-14T07:09:33.773Z,230
2018-09-14T07:10:41.842Z,250
2018-09-14T07:11:49.910Z,275
2018-09-14T07:12:57.965Z,275
2018-09-14T07:14:06.049Z,275
2018-09-14T07:15:14.126Z,270
2018-09-14T07:16:22.170Z,275
2018-09-14T07:17:30.242Z,260
2018-09-14T07:18:38.312Z,255
2018-09-14T07:19:46.394Z,270
2018-09-14T07:20:54.438Z,270
2018-09-14T07:22:02.720Z,275
2018-09-14T07:23:10.790Z,265
2018-09-14T07:24:18.890Z,300
2018-09-14T07:25:26.938Z,380
2018-09-14T07:26:35.012Z,355
2018-09-14T07:27:43.041Z,350
2018-09-14T07:28:51.136Z,410
2018-09-14T07:29:59.195Z,455
2018-09-14T07:31:07.265Z,510
2018-09-14T07:32:15.323Z,415
2018-09-14T07:33:23.387Z,410
2018-09-14T07:34:31.763Z,535
2018-09-14T07:35:39.528Z,440
2018-09-14T07:36:47.590Z,385
2018-09-14T07:37:55.669Z,380
2018-09-14T07:39:03.986Z,465
2018-09-14T07:40:11.795Z,530
2018-09-14T07:41:19.870Z,610
2018-09-14T07:42:38.658Z,515
2018-09-14T07:43:40.263Z,630
2018-09-14T07:44:48.318Z,505
2018-09-14T07:45:56.407Z,400
2018-09-14T07:47:04.458Z,370
2018-09-14T07:48:12.569Z,350
2018-09-14T07:49:20.616Z,345
2018-09-14T07:50:28.720Z,340
2018-09-14T07:51:36.750Z,345
2018-09-14T07:52:44.816Z,350
2018-09-14T07:53:52.858Z,360
2018-09-14T07:55:00.963Z,385
2018-09-14T07:56:09.030Z,390
2018-09-14T07:57:17.111Z,375
2018-09-14T07:58:25.166Z,375
2018-09-14T07:59:33.241Z,380
2018-09-14T08:00:41.410Z,385
2018-09-14T08:01:49.391Z,420
2018-09-14T08:02:57.552Z,490
2018-09-14T08:04:05.525Z,650
2018-09-14T08:05:19.672Z,865
2018-09-14T08:06:27.763Z,885
2018-09-14T08:07:36.052Z,905
2018-09-14T08:08:44.060Z,820
2018-09-14T08:09:52.121Z,770
2018-09-14T08:11:00.462Z,765
2018-09-14T08:12:13.425Z,765
2018-09-14T08:13:31.162Z,780
2018-09-14T08:14:26.480Z,790
2018-09-14T08:15:40.420Z,810
2018-09-14T08:16:52.452Z,825
2018-09-14T08:18:03.000Z,830
2018-09-14T08:19:08.592Z,790
2018-09-14T08:20:16.982Z,790
2018-09-14T08:21:24.818Z,825
2018-09-14T08:22:32.788Z,795
2018-09-14T08:24:59.666Z,780
2018-09-14T08:26:08.120Z,795
2018-09-14T08:27:20.531Z,745
2018-09-14T08:28:26.092Z,700
2018-09-14T08:29:34.173Z,745
2018-09-14T08:30:42.238Z,705
2018-09-14T08:31:50.319Z,660
2018-09-14T08:32:58.392Z,575
2018-09-14T08:34:06.450Z,485
2018-09-14T08:35:14.541Z,415
2018-09-14T08:36:22.785Z,365
2018-09-14T08:37:30.922Z,350
2018-09-14T08:38:38.957Z,345
2018-09-14T08:39:47.016Z,335
2018-09-14T08:40:55.100Z,335
2018-09-14T08:42:06.007Z,325
2018-09-14T08:43:12.651Z,355
2018-09-14T08:44:20.729Z,365
2018-09-14T08:45:28.788Z,335
2018-09-14T08:46:37.471Z,355
2018-09-14T08:47:44.963Z,405
2018-09-14T08:48:52.981Z,400
2018-09-14T08:50:01.071Z,390
2018-09-14T08:51:09.249Z,390
2018-09-14T08:52:19.876Z,415
2018-09-14T08:53:30.634Z,490
2018-09-14T08:54:38.396Z,580
2018-09-14T08:55:46.455Z,645
2018-09-14T08:56:54.531Z,675
2018-09-14T08:58:02.682Z,680
2018-09-14T08:59:10.882Z,685
2018-09-14T09:00:18.943Z,700
2018-09-14T09:01:27.013Z,705
2018-09-14T09:02:35.093Z,720
2018-09-14T09:03:43.153Z,705
2018-09-14T09:04:51.230Z,670
2018-09-14T09:05:59.283Z,625
2018-09-14T09:07:07.386Z,595
2018-09-14T09:08:15.637Z,545
2018-09-14T09:09:23.715Z,560
2018-09-14T09:10:32.188Z,615
2018-09-14T09:11:39.938Z,645
2018-09-14T09:12:48.128Z,635
2018-09-14T09:13:56.194Z,615
2018-09-14T09:15:04.256Z,600
2018-09-14T09:16:12.698Z,590
2018-09-14T09:17:20.409Z,580
2018-09-14T09:18:28.485Z,565
2018-09-14T09:19:36.555Z,540
2018-09-14T09:20:44.622Z,505
2018-09-14T09:21:52.664Z,495
2018-09-14T09:23:00.860Z,470
2018-09-14T09:24:08.832Z,430
2018-09-14T09:25:16.891Z,400
2018-09-14T09:26:24.997Z,395
2018-09-14T09:27:33.017Z,405
2018-09-14T09:28:41.116Z,400
2018-09-14T09:29:49.237Z,380
2018-09-14T09:30:57.243Z,340
2018-09-14T09:32:05.321Z,305
2018-09-14T09:33:13.391Z,320
2018-09-14T09:34:21.469Z,350
2018-09-14T09:35:29.527Z,350
2018-09-14T09:36:37.604Z,375
2018-09-14T09:37:45.674Z,405
2018-09-14T09:38:53.754Z,415
2018-09-14T09:40:01.809Z,430
2018-09-14T09:41:09.880Z,425
2018-09-14T09:42:17.952Z,400
2018-09-14T09:43:26.403Z,390
2018-09-14T09:44:34.277Z,440
2018-09-14T09:45:42.351Z,500
2018-09-14T09:46:50.523Z,525
2018-09-14T09:47:58.506Z,525
2018-09-14T09:49:06.562Z,530
2018-09-14T09:50:14.640Z,510
2018-09-14T09:51:22.830Z,485
2018-09-14T09:52:30.783Z,465
2018-09-14T09:53:38.843Z,495
2018-09-14T09:54:46.914Z,520
2018-09-14T09:55:55.235Z,495
2018-09-14T09:57:03.035Z,485
2018-09-14T09:58:11.425Z,490
2018-09-14T09:59:19.183Z,520
2018-09-14T10:00:27.251Z,515
2018-09-14T10:01:35.336Z,460
2018-09-14T10:02:43.396Z,425
2018-09-14T10:03:51.577Z,360
2018-09-14T10:04:59.811Z,305
2018-09-14T10:06:07.621Z,300
2018-09-14T10:07:15.732Z,290
2018-09-14T10:08:23.941Z,290
2018-09-14T10:09:32.023Z,290
2018-09-14T10:10:40.088Z,290
2018-09-14T10:11:48.422Z,290
2018-09-14T10:12:56.219Z,290
2018-09-14T10:14:04.365Z,305
2018-09-14T10:15:12.365Z,320
2018-09-14T10:16:20.439Z,335
2018-09-14T10:17:28.504Z,350
2018-09-14T10:18:36.661Z,375
2018-09-14T10:19:44.647Z,400
2018-09-14T10:20:53.122Z,415
2018-09-14T10:22:00.998Z,435
2018-09-14T10:23:09.054Z,445
2018-09-14T10:24:17.116Z,470
2018-09-14T10:25:25.187Z,485
2018-09-14T10:26:33.310Z,505
2018-09-14T10:27:41.329Z,525
2018-09-14T10:28:49.475Z,525
2018-09-14T10:29:57.469Z,520
2018-09-14T10:31:05.540Z,545
2018-09-14T10:32:14.641Z,580
2018-09-14T10:33:21.689Z,590
2018-09-14T10:34:29.747Z,580
2018-09-14T10:35:37.818Z,570
2018-09-14T10:36:45.886Z,565
2018-09-14T10:37:53.966Z,535
2018-09-14T10:39:02.021Z,515
2018-09-14T10:40:10.387Z,515
2018-09-14T10:41:18.163Z,525
2018-09-14T10:42:26.504Z,550
2018-09-14T10:43:34.312Z,595
2018-09-14T10:44:42.377Z,645
2018-09-14T10:45:50.762Z,625
2018-09-14T10:46:58.567Z,530
2018-09-14T10:48:06.604Z,505
2018-09-14T10:49:14.929Z,530
2018-09-14T10:50:22.704Z,520
2018-09-14T10:51:30.810Z,510
2018-09-14T10:52:38.913Z,565
2018-09-14T10:53:46.949Z,605
2018-09-14T10:54:55.152Z,625
2018-09-14T10:56:03.095Z,625
2018-09-14T10:57:11.163Z,570
2018-09-14T10:58:19.232Z,570
2018-09-14T10:59:27.298Z,610
2018-09-14T11:00:35.367Z,630
2018-09-14T11:01:43.445Z,555
2018-09-14T11:02:52.099Z,485
2018-09-14T11:03:59.589Z,405
2018-09-14T11:05:07.668Z,375
2018-09-14T11:06:15.736Z,405
2018-09-14T11:07:23.801Z,420
2018-09-14T11:08:32.496Z,420
2018-09-14T11:09:39.946Z,425
2018-09-14T11:10:48.013Z,380
2018-09-14T11:11:56.088Z,340
2018-09-14T11:13:04.241Z,320
2018-09-14T11:14:12.235Z,300
2018-09-14T11:15:20.303Z,300
2018-09-14T11:16:28.377Z,265
2018-09-14T11:17:36.447Z,230
2018-09-14T11:18:44.863Z,205
2018-09-14T11:19:52.760Z,205
2018-09-14T11:21:01.217Z,215
2018-09-14T11:22:09.179Z,225
2018-09-14T11:23:17.008Z,235
2018-09-14T11:24:25.144Z,240
2018-09-14T11:25:33.209Z,250
2018-09-14T11:26:41.207Z,275
2018-09-14T11:27:49.302Z,340
2018-09-14T11:28:57.346Z,410
2018-09-14T11:30:05.421Z,430
2018-09-14T11:31:13.495Z,385
2018-09-14T11:32:21.602Z,310
2018-09-14T11:33:29.639Z,255
2018-09-14T11:34:37.756Z,210
2018-09-14T11:35:46.029Z,195
2018-09-14T11:36:53.854Z,195
2018-09-14T11:38:02.092Z,195
2018-09-14T11:39:10.080Z,185
2018-09-14T11:40:18.103Z,180
2018-09-14T11:41:26.124Z,175
2018-09-14T11:42:34.749Z,180
2018-09-14T11:43:42.472Z,195
2018-09-14T11:44:50.654Z,215
2018-09-14T11:45:58.640Z,220
2018-09-14T11:47:06.681Z,220
2018-09-14T11:48:14.758Z,205
2018-09-14T11:49:22.796Z,190
2018-09-14T11:50:30.887Z,185
2018-09-14T11:51:39.006Z,185
2018-09-14T11:52:47.029Z,185
2018-09-14T11:53:55.098Z,180
2018-09-14T11:55:03.162Z,180
2018-09-14T11:56:11.246Z,185
2018-09-14T11:57:19.317Z,195
2018-09-14T11:58:27.468Z,210
2018-09-14T11:59:35.456Z,225
2018-09-14T12:00:43.512Z,230
2018-09-14T12:01:51.587Z,230
2018-09-14T12:03:00.009Z,220
2018-09-14T12:04:07.777Z,220
2018-09-14T12:05:15.800Z,215
2018-09-14T12:06:23.862Z,210
2018-09-14T12:07:31.931Z,205
2018-09-14T12:08:40.009Z,190
2018-09-14T12:09:48.072Z,185
2018-09-14T12:10:56.138Z,185
2018-09-14T12:12:04.480Z,190
2018-09-14T12:13:12.371Z,190
2018-09-14T12:14:20.349Z,180
2018-09-14T12:15:28.673Z,185
2018-09-14T12:16:36.551Z,185
2018-09-14T12:17:44.560Z,195
2018-09-14T12:18:52.889Z,215
2018-09-14T12:20:00.772Z,235
2018-09-14T12:21:08.754Z,240
2018-09-14T12:22:16.897Z,230
2018-09-14T12:23:25.119Z,205
2018-09-14T12:24:33.234Z,185
2018-09-14T12:25:41.266Z,185
2018-09-14T12:26:49.323Z,190
2018-09-14T12:27:57.393Z,190
2018-09-14T12:29:05.458Z,195
2018-09-14T12:30:13.535Z,205
2018-09-14T12:31:21.876Z,225
2018-09-14T12:32:29.757Z,245
2018-09-14T12:33:37.749Z,295
2018-09-14T12:34:45.811Z,320
2018-09-14T12:35:53.885Z,315
2018-09-14T12:37:01.946Z,310
2018-09-14T12:38:10.025Z,325
2018-09-14T12:39:18.095Z,315
2018-09-14T12:40:26.170Z,230
2018-09-14T12:41:34.234Z,195
2018-09-14T12:42:43.129Z,205
2018-09-14T12:43:50.347Z,200
2018-09-14T12:44:58.453Z,190
2018-09-14T12:46:06.513Z,185
2018-09-14T12:47:14.576Z,160
2018-09-14T12:48:22.615Z,160
2018-09-14T12:49:30.713Z,165
2018-09-14T12:50:38.774Z,175
2018-09-14T12:51:46.891Z,175
2018-09-14T12:52:54.917Z,165
2018-09-14T12:54:02.970Z,165
2018-09-14T12:55:11.059Z,160
2018-09-14T12:56:19.170Z,155
2018-09-14T12:57:27.192Z,150
2018-09-14T12:58:35.270Z,155
2018-09-14T12:59:43.322Z,155
2018-09-14T13:00:51.665Z,155
2018-09-14T13:01:59.501Z,155
2018-09-14T13:03:07.751Z,170
2018-09-14T13:04:15.853Z,230
2018-09-14T13:05:23.891Z,270
2018-09-14T13:06:32.138Z,280
2018-09-14T13:07:40.211Z,305
2018-09-14T13:08:48.286Z,310
2018-09-14T13:09:56.351Z,305
2018-09-14T13:11:04.422Z,265
2018-09-14T13:12:12.486Z,235
2018-09-14T13:13:20.660Z,245
2018-09-14T13:14:28.637Z,285
2018-09-14T13:15:36.671Z,290
2018-09-14T13:16:44.759Z,280
2018-09-14T13:17:52.801Z,300
2018-09-14T13:19:00.893Z,330
2018-09-14T13:20:08.979Z,360
2018-09-14T13:21:17.034Z,385
2018-09-14T13:22:25.094Z,415
2018-09-14T13:23:33.740Z,410
2018-09-14T13:24:41.581Z,395
2018-09-14T13:25:49.304Z,360
2018-09-14T13:26:57.381Z,365
2018-09-14T13:28:05.513Z,375
2018-09-14T13:29:13.518Z,410
2018-09-14T13:30:21.609Z,430
2018-09-14T13:31:29.695Z,385
2018-09-14T13:32:37.728Z,370
2018-09-14T13:33:45.853Z,380
2018-09-14T13:34:53.871Z,415
2018-09-14T13:36:01.948Z,445
2018-09-14T13:37:10.010Z,460
2018-09-14T13:38:18.078Z,420
2018-09-14T13:39:26.148Z,370
2018-09-14T13:40:34.403Z,350
2018-09-14T13:41:42.475Z,360
2018-09-14T13:42:50.562Z,365
2018-09-14T13:43:58.633Z,360
2018-09-14T13:45:06.953Z,360
2018-09-14T13:46:14.770Z,345
2018-09-14T13:47:22.807Z,315
2018-09-14T13:48:30.922Z,285
2018-09-14T13:49:38.966Z,285
2018-09-14T13:50:47.030Z,275
2018-09-14T13:51:55.116Z,305
2018-09-14T13:53:03.186Z,320
2018-09-14T13:54:11.251Z,345
2018-09-14T13:55:19.326Z,360
2018-09-14T13:56:27.393Z,325
2018-09-14T13:57:35.477Z,325
2018-09-14T13:58:43.524Z,360
2018-09-14T13:59:51.596Z,350
2018-09-14T14:00:59.684Z,330
2018-09-14T14:02:07.753Z,315
2018-09-14T14:03:16.070Z,310
2018-09-14T14:04:23.875Z,315
2018-09-14T14:05:31.949Z,295
2018-09-14T14:06:40.013Z,275
2018-09-14T14:07:48.091Z,270
2018-09-14T14:08:56.178Z,275
2018-09-14T14:10:04.272Z,260
2018-09-14T14:11:12.301Z,235
2018-09-14T14:12:20.610Z,215
2018-09-14T14:13:28.441Z,205
2018-09-14T14:14:36.548Z,190
2018-09-14T14:15:44.578Z,175
2018-09-14T14:16:52.651Z,160
2018-09-14T14:18:00.714Z,170
2018-09-14T14:19:08.782Z,175
2018-09-14T14:20:16.864Z,160
2018-09-14T14:21:24.914Z,155
2018-09-14T14:22:33.005Z,145
2018-09-14T14:23:41.046Z,135
2018-09-14T14:24:49.134Z,125
2018-09-14T14:25:57.271Z,130
2018-09-14T14:27:05.267Z,140
2018-09-14T14:28:13.340Z,135
2018-09-14T14:29:21.414Z,125
2018-09-14T14:30:29.483Z,105
2018-09-14T14:31:37.544Z,90
2018-09-14T14:32:45.629Z,75
2018-09-14T14:33:53.699Z,65
2018-09-14T14:35:01.753Z,55
2018-09-14T14:36:09.826Z,55
2018-09-14T14:37:17.934Z,45
2018-09-14T14:38:25.959Z,40
2018-09-14T14:39:34.042Z,40
2018-09-14T14:40:42.097Z,40
2018-09-14T14:41:50.176Z,40
2018-09-14T14:42:58.242Z,40
2018-09-14T14:44:06.313Z,40
2018-09-14T14:45:14.384Z,40
2018-09-14T14:46:22.444Z,45
2018-09-14T14:47:30.525Z,60
2018-09-14T14:48:38.591Z,80
2018-09-14T14:49:46.653Z,100
2018-09-14T14:50:54.729Z,115
2018-09-14T14:52:02.766Z,120
2018-09-14T14:53:10.863Z,125
2018-09-14T14:54:18.917Z,120
2018-09-14T14:55:26.992Z,120
2018-09-14T14:56:35.073Z,115
2018-09-14T14:57:43.122Z,115
2018-09-14T14:58:51.201Z,135
2018-09-14T14:59:59.267Z,145
2018-09-14T15:01:07.349Z,155
2018-09-14T15:02:15.399Z,165
2018-09-14T15:03:23.534Z,195
2018-09-14T15:04:31.546Z,230
2018-09-14T15:05:39.610Z,255
2018-09-14T15:06:47.685Z,255
2018-09-14T15:07:55.750Z,245
2018-09-14T15:09:03.852Z,240
2018-09-14T15:10:11.885Z,215
2018-09-14T15:11:19.942Z,195
2018-09-14T15:12:28.021Z,200
2018-09-14T15:13:36.140Z,215
2018-09-14T15:14:44.161Z,225
2018-09-14T15:15:52.216Z,230
2018-09-14T15:17:00.281Z,230
2018-09-14T15:18:08.366Z,220
2018-09-14T15:19:16.543Z,185
2018-09-14T15:20:24.495Z,160
2018-09-14T15:21:32.564Z,155
2018-09-14T15:22:40.668Z,150
2018-09-14T15:23:48.702Z,150
2018-09-14T15:24:56.767Z,145
2018-09-14T15:26:05.089Z,145
2018-09-14T15:27:12.891Z,135
2018-09-14T15:28:20.989Z,135
2018-09-14T15:29:29.049Z,135
2018-09-14T15:30:37.108Z,150
2018-09-14T15:31:45.269Z,160
2018-09-14T15:32:53.255Z,170
2018-09-14T15:34:01.317Z,175
2018-09-14T15:35:09.387Z,185
2018-09-14T15:36:17.442Z,190
2018-09-14T15:37:25.524Z,190
2018-09-14T15:38:33.594Z,190
2018-09-14T15:39:41.930Z,185
2018-09-14T15:40:49.783Z,185
2018-09-14T15:41:57.794Z,190
2018-09-14T15:43:06.117Z,170
2018-09-14T15:44:13.942Z,150
2018-09-14T15:45:22.000Z,130
2018-09-14T15:46:30.068Z,110
2018-09-14T15:47:38.136Z,100
2018-09-14T15:48:46.213Z,95
2018-09-14T15:49:54.533Z,90
2018-09-14T15:51:02.393Z,85
2018-09-14T15:52:10.405Z,80
2018-09-14T15:53:18.474Z,85
2018-09-14T15:54:26.544Z,90
2018-09-14T15:55:34.608Z,95
2018-09-14T15:56:42.664Z,95
2018-09-14T15:57:50.873Z,105
2018-09-14T15:58:58.817Z,115
2018-09-14T16:00:06.989Z,130
2018-09-14T16:01:14.944Z,140
2018-09-14T16:02:23.018Z,150
2018-09-14T16:03:31.093Z,170
2018-09-14T16:04:39.151Z,195
2018-09-14T16:05:47.222Z,205
2018-09-14T16:06:55.296Z,200
2018-09-14T16:08:03.361Z,185
2018-09-14T16:09:14.603Z,170
2018-09-14T16:10:19.497Z,165
2018-09-14T16:11:27.565Z,150
2018-09-14T16:12:35.629Z,140
2018-09-14T16:13:43.763Z,140
2018-09-14T16:14:53.989Z,150
2018-09-14T16:16:02.060Z,155
2018-09-14T16:17:10.114Z,160
2018-09-14T16:18:18.184Z,150
2018-09-14T16:19:26.251Z,140
2018-09-14T16:20:34.320Z,125
2018-09-14T16:21:42.751Z,120
2018-09-14T16:22:50.465Z,115
2018-09-14T16:23:58.523Z,110
2018-09-14T16:25:06.708Z,105
2018-09-14T16:26:14.665Z,100
2018-09-14T16:27:22.709Z,95
2018-09-14T16:28:30.789Z,100
2018-09-14T16:29:38.856Z,100
2018-09-14T16:30:46.921Z,105
2018-09-14T16:31:55.137Z,95
2018-09-14T16:33:03.287Z,90
2018-09-14T16:34:11.119Z,85
2018-09-14T16:35:19.188Z,80
2018-09-14T16:36:27.268Z,75
2018-09-14T16:37:35.592Z,75
2018-09-14T16:38:43.407Z,70
2018-09-14T16:39:52.152Z,70
2018-09-14T16:40:59.531Z,70
2018-09-14T16:42:07.643Z,75
2018-09-14T16:43:15.695Z,75
2018-09-14T16:44:23.740Z,70
2018-09-14T16:45:31.795Z,70
2018-09-14T16:46:40.227Z,70
2018-09-14T16:47:47.978Z,70
2018-09-14T16:48:55.998Z,65
2018-09-14T16:50:05.399Z,60
2018-09-14T16:51:12.141Z,60
2018-09-14T16:52:20.212Z,60
2018-09-14T16:53:28.269Z,60
2018-09-14T16:54:36.348Z,55
2018-09-14T16:55:44.409Z,55
2018-09-14T16:56:52.469Z,55
2018-09-14T16:58:00.545Z,50
2018-09-14T16:59:08.610Z,50
2018-09-14T17:00:16.673Z,50
2018-09-14T17:01:24.748Z,45
2018-09-14T17:02:32.822Z,40
2018-09-14T17:03:40.889Z,40
2018-09-14T17:04:49.308Z,40
2018-09-14T17:05:57.007Z,40
2018-09-14T17:07:05.096Z,35
2018-09-14T17:08:13.139Z,35
2018-09-14T17:09:21.209Z,35
2018-09-14T17:10:29.277Z,30
2018-09-14T17:11:37.347Z,30
2018-09-14T17:12:45.619Z,30
2018-09-14T17:13:53.688Z,25
2018-09-14T17:15:01.750Z,25
2018-09-14T17:16:09.835Z,25
2018-09-14T17:17:17.900Z,25
2018-09-14T17:18:25.951Z,20
2018-09-14T17:19:34.031Z,20
2018-09-14T17:20:42.082Z,15
2018-09-14T17:21:50.167Z,15
2018-09-14T17:22:58.236Z,15
2018-09-14T17:24:06.295Z,15
2018-09-14T17:25:14.354Z,15
2018-09-14T17:26:22.414Z,10
2018-09-14T17:27:30.498Z,10
2018-09-14T17:28:38.560Z,5
2018-09-14T17:29:46.621Z,5
2018-09-14T17:30:54.698Z,5
2018-09-14T17:32:02.727Z,5
2018-09-14T17:33:10.815Z,5
2018-09-14T17:34:18.889Z,0
2018-09-14T17:35:27.279Z,0
2018-09-14T17:36:35.131Z,0
2018-09-14T17:37:43.081Z,0
2018-09-14T17:38:51.472Z,0
2018-09-14T17:39:59.240Z,0
2018-09-14T17:41:07.296Z,0
2018-09-14T17:42:15.358Z,0
2018-09-14T17:43:23.433Z,0
2018-09-14T17:44:31.622Z,0
2018-09-14T17:45:39.554Z,0
2018-09-14T17:46:47.643Z,0
2018-09-14T17:47:55.711Z,0
2018-09-14T17:49:03.758Z,0
2018-09-14T17:50:11.929Z,0
2018-09-14T17:51:19.894Z,0
2018-09-14T17:52:28.097Z,0
2018-09-14T17:53:36.028Z,0
2018-09-14T17:54:44.099Z,0
2018-09-14T17:55:52.351Z,0
2018-09-14T17:57:00.430Z,0
2018-09-14T17:58:08.487Z,0
2018-09-14T17:59:16.562Z,0
2018-09-14T18:00:24.627Z,0
2018-09-14T18:01:32.671Z,0
2018-09-14T18:02:40.766Z,0
2018-09-14T18:03:48.921Z,0
2018-09-14T18:04:57.198Z,0
2018-09-14T18:06:04.957Z,0
2018-09-14T18:07:13.059Z,0
2018-09-14T18:08:21.101Z,0
2018-09-14T18:09:29.165Z,0
2018-09-14T18:10:37.228Z,0
2018-09-14T18:11:45.650Z,0
2018-09-14T18:12:53.368Z,0
2018-09-14T18:14:01.439Z,0
2018-09-14T18:15:09.755Z,0
2018-09-14T18:16:17.614Z,0
2018-09-14T18:17:25.666Z,0
2018-09-14T18:18:33.697Z,0
2018-09-14T18:19:41.761Z,0
2018-09-14T18:20:49.873Z,0
2018-09-14T18:21:58.190Z,0
2018-09-14T18:23:05.966Z,0
2018-09-14T18:24:14.127Z,0
2018-09-14T18:25:22.102Z,0
2018-09-14T18:26:30.164Z,0
2018-09-14T18:27:38.315Z,0
2018-09-14T18:28:46.292Z,0
2018-09-14T18:29:54.375Z,0
2018-09-14T18:31:02.425Z,0
2018-09-14T18:32:10.486Z,0
2018-09-14T18:33:18.827Z,0
2018-09-14T18:34:26.638Z,0
2018-09-14T18:35:34.717Z,0
2018-09-14T18:36:42.733Z,0
2018-09-14T18:37:50.836Z,0
2018-09-14T18:38:58.902Z,0
2018-09-14T18:40:06.947Z,0
2018-09-14T18:41:15.021Z,0
2018-09-14T18:42:23.124Z,0
2018-09-14T18:43:31.170Z,0
2018-09-14T18:44:39.221Z,0
2018-09-14T18:45:47.290Z,0
2018-09-14T18:46:55.449Z,0
2018-09-14T18:48:03.425Z,0
2018-09-14T18:49:11.487Z,0
2018-09-14T18:50:19.557Z,0
2018-09-14T18:51:27.615Z,0
2018-09-14T18:52:35.767Z,0
2018-09-14T18:53:43.768Z,0
2018-09-14T18:54:51.825Z,0
2018-09-14T18:55:59.889Z,0
2018-09-14T18:57:08.231Z,0
2018-09-14T18:58:16.029Z,0
2018-09-14T18:59:24.096Z,0
2018-09-14T19:00:32.164Z,0
2018-09-14T19:01:40.477Z,0
2018-09-14T19:02:48.488Z,0
2018-09-14T19:03:56.551Z,0
2018-09-14T19:05:04.618Z,0
2018-09-14T19:06:12.665Z,0
2018-09-14T19:07:20.759Z,0
2018-09-14T19:08:29.121Z,0
2018-09-14T19:09:36.922Z,0
2018-09-14T19:10:44.965Z,0
2018-09-14T19:11:52.998Z,0
2018-09-14T19:13:01.295Z,0
2018-09-14T19:14:09.364Z,0
2018-09-14T19:15:17.440Z,0
2018-09-14T19:16:25.492Z,0
2018-09-14T19:17:33.553Z,0
2018-09-14T19:18:41.663Z,0
2018-09-14T19:19:49.702Z,0
2018-09-14T19:20:57.761Z,0
2018-09-14T19:22:05.811Z,0
2018-09-14T19:23:13.931Z,0
2018-09-14T19:24:21.975Z,0
2018-09-14T19:25:30.024Z,0
2018-09-14T19:26:38.082Z,0
2018-09-14T19:27:46.153Z,0
2018-09-14T19:28:54.216Z,0
2018-09-14T19:30:02.277Z,0
2018-09-14T19:31:10.350Z,0
2018-09-14T19:32:18.418Z,0
2018-09-14T19:33:26.502Z,0
2018-09-14T19:34:34.542Z,0
2018-09-14T19:35:42.585Z,0
2018-09-14T19:36:50.967Z,0
2018-09-14T19:37:58.938Z,0
2018-09-14T19:39:07.015Z,0
2018-09-14T19:40:15.073Z,0
2018-09-14T19:41:23.144Z,0
2018-09-14T19:42:31.498Z,0
2018-09-14T19:43:39.263Z,0
2018-09-14T19:44:47.325Z,0
2018-09-14T19:45:55.410Z,0
2018-09-14T19:47:03.690Z,0
2018-09-14T19:48:11.931Z,0
2018-09-14T19:49:20.012Z,0
2018-09-14T19:50:28.070Z,0
2018-09-14T19:51:36.163Z,0
2018-09-14T19:52:44.206Z,0
2018-09-14T19:53:52.262Z,0
2018-09-14T19:55:00.345Z,0
2018-09-14T19:56:08.403Z,0
2018-09-14T19:57:16.471Z,0
2018-09-14T19:58:24.540Z,0
2018-09-14T19:59:32.577Z,0
2018-09-14T20:00:40.658Z,0
2018-09-14T20:01:48.739Z,0
2018-09-14T20:02:56.798Z,0
2018-09-14T20:04:04.855Z,0
2018-09-14T20:05:13.011Z,0
2018-09-14T20:06:20.983Z,0
2018-09-14T20:07:29.056Z,0
2018-09-14T20:08:37.118Z,0
2018-09-14T20:09:45.210Z,0
2018-09-14T20:10:53.255Z,0
2018-09-14T20:12:01.327Z,0
2018-09-14T20:13:09.395Z,0
2018-09-14T20:14:17.455Z,0
2018-09-14T20:15:25.519Z,0
2018-09-14T20:16:33.579Z,0
2018-09-14T20:17:41.671Z,0
2018-09-14T20:18:49.719Z,0
2018-09-14T20:19:57.788Z,0
2018-09-14T20:21:05.846Z,0
2018-09-14T20:22:14.209Z,0
2018-09-14T20:23:22.182Z,0
2018-09-14T20:24:30.505Z,0
2018-09-14T20:25:38.617Z,0
2018-09-14T20:26:46.583Z,0
2018-09-14T20:27:54.929Z,0
2018-09-14T20:29:02.688Z,0
2018-09-14T20:30:10.773Z,0
2018-09-14T20:31:19.108Z,0
2018-09-14T20:32:26.908Z,0
2018-09-14T20:33:34.983Z,0
2018-09-14T20:34:43.272Z,0
2018-09-14T20:35:51.312Z,0
2018-09-14T20:36:59.580Z,0
2018-09-14T20:38:07.648Z,0
2018-09-14T20:39:15.703Z,0
2018-09-14T20:40:23.772Z,0
2018-09-14T20:41:31.845Z,0
2018-09-14T20:42:39.958Z,0
2018-09-14T20:43:47.963Z,0
2018-09-14T20:44:56.029Z,0
2018-09-14T20:46:04.109Z,0
2018-09-14T20:47:12.155Z,0
2018-09-14T20:48:20.239Z,0
2018-09-14T20:49:28.304Z,0
2018-09-14T20:50:36.630Z,0
2018-09-14T20:51:44.474Z,0
2018-09-14T20:52:52.482Z,0
2018-09-14T20:54:00.754Z,0
2018-09-14T20:55:08.851Z,0
2018-09-14T20:56:16.884Z,0
2018-09-14T20:57:25.159Z,0
2018-09-14T20:58:33.215Z,0
2018-09-14T20:59:41.283Z,0
2018-09-14T21:00:49.359Z,0
2018-09-14T21:01:57.411Z,0
2018-09-14T21:03:05.484Z,0
2018-09-14T21:04:14.631Z,0
2018-09-14T21:05:21.607Z,0
2018-09-14T21:06:29.666Z,0
2018-09-14T21:07:37.748Z,0
2018-09-14T21:08:45.809Z,0
2018-09-14T21:09:53.959Z,0
2018-09-14T21:11:01.935Z,0
2018-09-14T21:12:09.993Z,0
2018-09-14T21:13:18.079Z,0
2018-09-14T21:14:26.133Z,0
2018-09-14T21:15:34.528Z,0
2018-09-14T21:16:42.251Z,0
2018-09-14T21:17:50.326Z,0
2018-09-14T21:18:58.376Z,0
2018-09-14T21:20:06.445Z,0
2018-09-14T21:21:14.519Z,0
2018-09-14T21:22:22.565Z,0